Saguache, CO

06:17 MST le 23 novembre 2014 (GMT -0700)
Saguache | Change Station
CLOSE
Current Station
Aéroport
Location: Saguache,
Altitude: 7825 ft
Stations météo à proximité

Alt. 7825 ft 38.10 °N, 106.17 °W | Updated 24 minutes ago

Partiellement nuageux
Partiellement nuageux
30 ° F
Paraît 16 ° F
N
25
Vent Variable Vent de NNO
Gusts 34 mph

Aujourd'hui
Haut(e) -- | Bas -- ° F
--% Risque de précip.
Hier
Haut(e) -- | Bas -- ° F
Precip. -- pouce
6:54 AM 4:47 PM
Nouvelle lune, 1% visible
Pression 29.68 pouce
Visibilité 10.0 Miles terrestres
Nuages Couvert 11000 ft
Refroidissement éolien 16 ° F
Point de rosée 21 ° F
Humidité 69%
Précipitations 0.09 pouce
Profondeur de la couche neigeuse Non disponible.
UV 0 sur 12
Pollen .10 sur 12
Qualité de l'air Non disponible.
Flu Activity Non disponible.
METAR K04V 231253Z AUTO 33022G30KT 10SM OVC110 M01/M06 A2968 RMK AO2

More Conditions Fewer Conditions

Pression 29.68 pouce
Visibilité 10.0 Miles terrestres
Nuages Couvert 11000 ft
Refroidissement éolien 16 ° F
Point de rosée 21 ° F
Humidité 69%
Précipitations 0.09 pouce
Profondeur de la couche neigeuse Non disponible.
UV 0 sur 12
Pollen .10 sur 12
Qualité de l'air Non disponible.
Flu Activity Non disponible.
METAR K04V 231253Z AUTO 33022G30KT 10SM OVC110 M01/M06 A2968 RMK AO2

More Conditions Fewer Conditions

10-Day Weather Forecast

Almanac

Astronomie

Nov. 23, 2014 Lever Coucher
Temps réel
Crépuscule civil
Crépuscule nautique
Crépuscule astronomique
Lune
Durée de lumière visible
Longueur du jour
Tomorrow will be .
, % of the Moon is Illuminated

Extrêmes aujourd'hui

State Highs State Lows

Community

WunderPhotos

Upload Photos

1,773,054 Photos téléchargées !

WunderBlogs® & News

Nearby

Qualité de l'air

  Qualité de l'air Indice de la qualité de l'air Polluant
Not available.

Épaisseur de neige

Station Depth Altitude

Activité sismique

Ville Distance Mag. Time & Date
Minimum magnitude displayed is 2.5.

Températures des eaux côtières

Lieu Température

Stations météo à proximité